createdAt,value
2019-02-27T00:00:45.799Z,10.03
2019-02-27T00:03:16.691Z,7.60
2019-02-27T00:05:47.244Z,6.70
2019-02-27T00:08:17.727Z,11.43
2019-02-27T00:10:48.174Z,10.53
2019-02-27T00:13:18.681Z,9.53
2019-02-27T00:15:49.135Z,8.47
2019-02-27T00:18:23.709Z,9.20
2019-02-27T00:20:52.316Z,6.97
2019-02-27T00:23:24.150Z,7.07
2019-02-27T00:25:55.157Z,10.97
2019-02-27T00:28:25.645Z,10.50
2019-02-27T00:30:56.097Z,12.03
2019-02-27T00:33:28.617Z,11.20
2019-02-27T00:35:58.777Z,10.27
2019-02-27T00:38:29.251Z,14.67
2019-02-27T00:41:00.945Z,11.80
2019-02-27T00:43:31.408Z,10.83
2019-02-27T00:46:01.893Z,7.30
2019-02-27T00:48:32.338Z,9.37
2019-02-27T00:51:02.833Z,11.20
2019-02-27T00:53:33.292Z,8.63
2019-02-27T00:56:03.795Z,9.80
2019-02-27T00:58:34.294Z,7.73
2019-02-27T01:01:05.120Z,7.17
2019-02-27T01:03:37.298Z,8.63
2019-02-27T01:06:07.956Z,9.30
2019-02-27T01:08:38.414Z,9.97
2019-02-27T01:11:08.901Z,9.70
2019-02-27T01:13:42.555Z,5.87
2019-02-27T01:16:17.012Z,9.33
2019-02-27T01:18:46.826Z,9.00
2019-02-27T01:21:19.954Z,11.23
2019-02-27T01:23:51.179Z,12.90
2019-02-27T01:26:23.133Z,10.53
2019-02-27T01:28:53.613Z,11.30
2019-02-27T01:31:24.510Z,8.60
2019-02-27T01:33:55.130Z,9.07
2019-02-27T01:36:25.579Z,10.63
2019-02-27T01:38:56.066Z,7.60
2019-02-27T01:41:26.549Z,8.80
2019-02-27T01:43:57.004Z,12.60
2019-02-27T01:46:27.771Z,10.00
2019-02-27T01:48:58.867Z,7.57
2019-02-27T01:51:29.316Z,7.00
2019-02-27T01:54:04.268Z,9.40
2019-02-27T01:56:34.818Z,10.30
2019-02-27T01:59:06.846Z,10.10
2019-02-27T02:01:37.326Z,8.07
2019-02-27T02:04:07.813Z,10.23
2019-02-27T02:06:38.928Z,9.40
2019-02-27T02:09:31.108Z,8.90
2019-02-27T02:12:11.934Z,9.63
2019-02-27T02:15:05.248Z,11.83
2019-02-27T02:18:11.915Z,9.07
2019-02-27T02:21:10.214Z,11.60
2019-02-27T02:24:14.304Z,8.40
2019-02-27T02:27:08.234Z,6.57
2019-02-27T02:30:20.848Z,12.17
2019-02-27T02:33:16.448Z,8.67
2019-02-27T02:35:57.282Z,8.17
2019-02-27T02:38:32.479Z,14.47
2019-02-27T02:41:34.688Z,11.07
2019-02-27T02:44:30.762Z,11.13
2019-02-27T02:47:31.600Z,9.53
2019-02-27T02:50:27.201Z,7.03
2019-02-27T02:53:17.128Z,9.33
2019-02-27T02:56:14.895Z,10.33
2019-02-27T02:59:26.581Z,10.30
2019-02-27T03:02:13.354Z,10.87
2019-02-27T03:05:26.363Z,12.00
2019-02-27T03:08:07.168Z,11.50
2019-02-27T03:11:01.620Z,8.73
2019-02-27T03:13:50.464Z,13.90
2019-02-27T03:16:34.512Z,9.30
2019-02-27T03:19:12.715Z,9.43
2019-02-27T03:22:24.944Z,11.53
2019-02-27T03:25:40.871Z,9.20
2019-02-27T03:28:40.371Z,10.10
2019-02-27T03:31:39.113Z,10.93
2019-02-27T03:34:27.763Z,13.37
2019-02-27T03:37:20.995Z,12.83
2019-02-27T03:40:17.372Z,11.60
2019-02-27T03:42:57.855Z,9.37
2019-02-27T03:45:55.355Z,12.50
2019-02-27T03:48:41.954Z,12.10
2019-02-27T03:51:48.564Z,15.03
2019-02-27T03:54:41.729Z,10.63
2019-02-27T03:57:22.602Z,9.97
2019-02-27T04:00:24.594Z,12.27
2019-02-27T04:02:59.748Z,12.13
2019-02-27T04:06:01.818Z,9.57
2019-02-27T04:08:54.071Z,13.60
2019-02-27T04:11:24.866Z,11.37
2019-02-27T04:14:03.058Z,10.53
2019-02-27T04:16:29.405Z,10.50
2019-02-27T04:19:04.632Z,11.33
2019-02-27T04:21:36.509Z,12.47
2019-02-27T04:24:08.498Z,12.33
2019-02-27T04:26:42.013Z,11.20
2019-02-27T04:29:12.823Z,10.23
2019-02-27T04:31:44.430Z,7.53
2019-02-27T04:34:14.915Z,9.70
2019-02-27T04:36:47.213Z,10.57
2019-02-27T04:39:18.242Z,12.40
2019-02-27T04:41:49.535Z,10.57
2019-02-27T04:44:22.428Z,10.27
2019-02-27T04:46:55.083Z,17.43
2019-02-27T04:49:25.105Z,11.90
2019-02-27T04:51:55.868Z,10.00
2019-02-27T04:54:26.354Z,12.20
2019-02-27T04:56:58.129Z,12.27
2019-02-27T04:59:30.079Z,9.23
2019-02-27T05:02:23.174Z,7.73
2019-02-27T05:04:55.187Z,9.90
2019-02-27T05:07:26.305Z,9.63
2019-02-27T05:09:56.784Z,8.90
2019-02-27T05:12:27.231Z,9.60
2019-02-27T05:15:00.829Z,15.50
2019-02-27T05:17:34.091Z,6.83
2019-02-27T05:20:11.590Z,7.57
2019-02-27T05:22:40.121Z,8.17
2019-02-27T05:25:12.155Z,7.03
2019-02-27T05:27:42.792Z,9.87
2019-02-27T05:30:14.857Z,8.80
2019-02-27T05:32:45.334Z,10.53
2019-02-27T05:35:16.564Z,14.37
2019-02-27T05:37:47.724Z,19.93
2019-02-27T05:40:18.209Z,9.60
2019-02-27T05:42:50.022Z,12.10
2019-02-27T05:45:22.013Z,11.07
2019-02-27T05:47:52.517Z,10.57
2019-02-27T05:50:22.947Z,10.33
2019-02-27T05:52:53.426Z,11.43
2019-02-27T05:55:23.870Z,7.30
2019-02-27T05:57:55.722Z,10.03
2019-02-27T06:00:26.263Z,20.17
2019-02-27T06:02:57.969Z,32.10
2019-02-27T06:05:28.425Z,14.40
2019-02-27T06:08:02.067Z,13.07
2019-02-27T06:10:31.182Z,14.03
2019-02-27T06:13:01.680Z,8.40
2019-02-27T06:15:32.222Z,5.97
2019-02-27T06:18:02.714Z,11.57
2019-02-27T06:20:33.241Z,7.73
2019-02-27T06:23:04.409Z,8.30
2019-02-27T06:25:59.167Z,8.73
2019-02-27T06:28:27.453Z,19.07
2019-02-27T06:30:57.944Z,11.33
2019-02-27T06:33:29.066Z,7.17
2019-02-27T06:35:59.554Z,4.80
2019-02-27T06:38:31.577Z,6.87
2019-02-27T06:41:02.033Z,7.97
2019-02-27T06:43:32.519Z,3.70
2019-02-27T06:46:03.085Z,5.70
2019-02-27T06:48:33.568Z,4.43
2019-02-27T06:51:04.017Z,4.90
2019-02-27T06:53:34.496Z,3.67
2019-02-27T06:56:06.003Z,3.50
2019-02-27T06:58:36.472Z,2.90
2019-02-27T07:01:09.124Z,4.93
2019-02-27T07:03:39.098Z,3.33
2019-02-27T07:06:09.560Z,6.40
2019-02-27T07:08:40.725Z,6.03
2019-02-27T07:11:11.388Z,3.83
2019-02-27T07:13:42.517Z,4.63
2019-02-27T07:16:14.792Z,1.80
2019-02-27T07:18:46.831Z,1.73
2019-02-27T07:21:19.517Z,6.50
2019-02-27T07:23:50.010Z,8.87
2019-02-27T07:26:20.463Z,2.40
2019-02-27T07:28:52.483Z,3.13
2019-02-27T07:31:23.457Z,4.70
2019-02-27T07:33:54.009Z,1.87
2019-02-27T07:36:24.482Z,4.30
2019-02-27T07:38:57.516Z,2.50
2019-02-27T07:41:27.796Z,4.03
2019-02-27T07:43:58.248Z,2.27
2019-02-27T07:46:29.650Z,2.10
2019-02-27T07:49:01.525Z,4.53
2019-02-27T07:51:32.238Z,2.13
2019-02-27T07:54:04.017Z,7.17
2019-02-27T07:56:35.397Z,8.10
2019-02-27T07:59:05.903Z,10.50
2019-02-27T08:01:43.469Z,2.27
2019-02-27T08:04:09.299Z,2.60
2019-02-27T08:06:41.428Z,4.30
2019-02-27T08:09:17.412Z,3.33
2019-02-27T08:11:47.988Z,1.53
2019-02-27T08:14:18.472Z,3.50
2019-02-27T08:16:48.934Z,1.70
2019-02-27T08:19:19.432Z,1.30
2019-02-27T08:21:49.882Z,4.90
2019-02-27T08:24:20.366Z,4.20
2019-02-27T08:26:52.453Z,3.50
2019-02-27T08:29:22.927Z,2.70
2019-02-27T08:31:53.425Z,2.50
2019-02-27T08:34:23.874Z,3.20
2019-02-27T08:36:54.414Z,2.07
2019-02-27T08:39:26.225Z,2.70
2019-02-27T08:41:56.679Z,2.83
2019-02-27T08:44:27.207Z,2.50
2019-02-27T08:46:58.327Z,2.03
2019-02-27T08:49:28.822Z,3.57
2019-02-27T08:52:00.561Z,3.10
2019-02-27T08:54:33.027Z,2.73
2019-02-27T08:57:03.732Z,1.63
2019-02-27T08:59:36.988Z,2.53
2019-02-27T09:02:07.580Z,3.47
2019-02-27T09:04:38.709Z,1.60
2019-02-27T09:07:09.253Z,2.00
2019-02-27T09:09:42.496Z,3.17
2019-02-27T09:12:14.006Z,3.77
2019-02-27T09:14:46.086Z,1.47
2019-02-27T09:17:18.227Z,17.03
2019-02-27T09:19:51.408Z,6.90
2019-02-27T09:22:21.895Z,1.80
2019-02-27T09:24:52.394Z,2.63
2019-02-27T09:27:22.908Z,1.30
2019-02-27T09:29:55.342Z,2.33
2019-02-27T09:32:27.342Z,1.60
2019-02-27T09:34:59.516Z,2.50
2019-02-27T09:37:30.078Z,1.73
2019-02-27T09:40:07.235Z,1.73
2019-02-27T09:42:37.707Z,2.73
2019-02-27T09:45:18.698Z,1.67
2019-02-27T09:47:49.235Z,2.10
2019-02-27T09:50:47.809Z,1.40
2019-02-27T09:53:15.655Z,2.10
2019-02-27T09:55:46.146Z,1.63
2019-02-27T09:58:19.597Z,3.60
2019-02-27T10:01:11.919Z,2.90
2019-02-27T10:03:44.906Z,1.80
2019-02-27T10:06:17.810Z,2.40
2019-02-27T10:08:48.544Z,1.50
2019-02-27T10:11:22.691Z,2.63
2019-02-27T10:13:53.860Z,2.77
2019-02-27T10:16:35.395Z,4.93
2019-02-27T10:19:08.381Z,1.60
2019-02-27T10:21:38.926Z,3.13
2019-02-27T10:24:09.458Z,2.10
2019-02-27T10:27:03.227Z,1.53
2019-02-27T10:29:35.330Z,1.43
2019-02-27T10:32:05.826Z,1.50
2019-02-27T10:34:36.362Z,2.13
2019-02-27T10:37:12.846Z,1.83
2019-02-27T10:39:44.564Z,2.87
2019-02-27T10:42:14.773Z,2.20
2019-02-27T10:44:45.944Z,1.33
2019-02-27T10:47:16.441Z,1.80
2019-02-27T10:49:48.535Z,2.57
2019-02-27T10:52:23.924Z,1.50
2019-02-27T10:54:51.930Z,1.50
2019-02-27T10:57:22.543Z,3.60
2019-02-27T10:59:53.021Z,2.50
2019-02-27T11:02:25.346Z,2.83
2019-02-27T11:04:55.806Z,1.80
2019-02-27T11:07:26.432Z,1.80
2019-02-27T11:09:56.962Z,1.23
2019-02-27T11:12:29.538Z,2.00
2019-02-27T11:15:00.890Z,1.60
2019-02-27T11:17:31.388Z,2.50
2019-02-27T11:20:03.168Z,2.30
2019-02-27T11:22:34.631Z,3.43
2019-02-27T11:25:10.509Z,2.60
2019-02-27T11:27:41.045Z,3.27
2019-02-27T11:30:19.095Z,2.00
2019-02-27T11:32:49.557Z,3.50
2019-02-27T11:35:22.135Z,2.20
2019-02-27T11:37:52.246Z,3.50
2019-02-27T11:40:25.599Z,2.13
2019-02-27T11:42:56.153Z,1.70
2019-02-27T11:45:26.800Z,2.40
2019-02-27T11:47:57.263Z,2.13
2019-02-27T11:50:27.828Z,5.40
2019-02-27T11:53:02.769Z,2.30
2019-02-27T11:55:32.192Z,3.17
2019-02-27T11:58:05.415Z,2.83
2019-02-27T12:00:36.292Z,2.80
2019-02-27T12:03:11.185Z,2.90
2019-02-27T12:05:41.200Z,1.80
2019-02-27T12:08:11.693Z,9.20
2019-02-27T12:10:42.224Z,2.43
2019-02-27T12:13:12.792Z,2.30
2019-02-27T12:15:44.589Z,2.03
2019-02-27T12:18:15.177Z,1.90
2019-02-27T12:20:45.779Z,2.50
2019-02-27T12:23:16.274Z,1.73
2019-02-27T12:25:46.728Z,2.13
2019-02-27T12:28:18.116Z,2.87
2019-02-27T12:30:48.950Z,2.17
2019-02-27T12:33:19.437Z,3.13
2019-02-27T12:35:49.967Z,3.40
2019-02-27T12:38:20.458Z,2.80
2019-02-27T12:40:50.921Z,2.50
2019-02-27T12:43:21.486Z,3.37
2019-02-27T12:45:51.969Z,2.40
2019-02-27T12:48:22.440Z,2.90
2019-02-27T12:50:52.925Z,3.73
2019-02-27T12:53:23.413Z,2.27
2019-02-27T12:55:54.700Z,3.47
2019-02-27T12:58:25.423Z,2.40
2019-02-27T13:00:58.029Z,2.70
2019-02-27T13:03:28.495Z,2.90
2019-02-27T13:06:00.931Z,4.93
2019-02-27T13:08:31.139Z,2.57
2019-02-27T13:11:01.645Z,2.60
2019-02-27T13:13:34.744Z,4.20
2019-02-27T13:16:05.441Z,2.53
2019-02-27T13:18:35.959Z,2.40
2019-02-27T13:21:09.185Z,3.30
2019-02-27T13:23:42.190Z,4.80
2019-02-27T13:26:11.836Z,2.30
2019-02-27T13:28:45.979Z,2.50
2019-02-27T13:31:16.319Z,2.50
2019-02-27T13:33:47.404Z,3.17
2019-02-27T13:36:17.920Z,2.20
2019-02-27T13:38:49.535Z,4.00
2019-02-27T13:41:20.580Z,3.67
2019-02-27T13:43:51.074Z,2.93
2019-02-27T13:46:22.711Z,4.73
2019-02-27T13:48:54.984Z,3.27
2019-02-27T13:51:25.472Z,3.07
2019-02-27T13:54:00.317Z,3.23
2019-02-27T13:56:29.674Z,3.50
2019-02-27T13:59:00.167Z,4.17
2019-02-27T14:01:32.154Z,3.90
2019-02-27T14:04:03.586Z,3.23
2019-02-27T14:06:34.951Z,2.70
2019-02-27T14:09:09.764Z,3.30
2019-02-27T14:11:40.292Z,3.23
2019-02-27T14:14:15.059Z,4.10
2019-02-27T14:16:49.265Z,3.97
2019-02-27T14:19:21.345Z,3.73
2019-02-27T14:21:53.312Z,4.47
2019-02-27T14:24:24.476Z,3.20
2019-02-27T14:26:54.953Z,3.40
2019-02-27T14:29:26.094Z,4.20
2019-02-27T14:31:57.622Z,3.03
2019-02-27T14:34:28.122Z,3.10
2019-02-27T14:36:58.571Z,2.93
2019-02-27T14:39:30.447Z,2.70
2019-02-27T14:42:01.329Z,11.03
2019-02-27T14:44:32.412Z,2.47
2019-02-27T14:47:02.936Z,3.30
2019-02-27T14:49:34.987Z,2.50
2019-02-27T14:52:05.748Z,3.43
2019-02-27T14:54:36.229Z,3.43
2019-02-27T14:57:08.259Z,2.90
2019-02-27T14:59:40.272Z,2.93
2019-02-27T15:02:16.229Z,3.47
2019-02-27T15:04:46.711Z,2.37
2019-02-27T15:07:18.711Z,3.83
2019-02-27T15:09:49.196Z,3.83
2019-02-27T15:12:20.482Z,3.60
2019-02-27T15:14:51.063Z,3.27
2019-02-27T15:17:21.530Z,2.93
2019-02-27T15:19:52.089Z,3.53
2019-02-27T15:22:22.560Z,5.93
2019-02-27T15:24:54.591Z,3.70
2019-02-27T15:27:25.697Z,4.63
2019-02-27T15:29:56.293Z,4.43
2019-02-27T15:32:29.442Z,5.63
2019-02-27T15:35:01.902Z,10.87
2019-02-27T15:37:37.114Z,10.00
2019-02-27T15:40:11.113Z,13.07
2019-02-27T15:42:42.700Z,14.43
2019-02-27T15:45:23.375Z,18.50
2019-02-27T15:47:53.962Z,22.80
2019-02-27T15:50:35.782Z,19.83
2019-02-27T15:53:06.430Z,23.10
2019-02-27T15:55:37.919Z,18.10
2019-02-27T15:58:08.559Z,20.40
2019-02-27T16:00:39.040Z,17.17
2019-02-27T16:03:11.785Z,16.60
2019-02-27T16:05:43.391Z,18.07
2019-02-27T16:08:15.279Z,18.20
2019-02-27T16:10:54.932Z,19.03
2019-02-27T16:13:21.977Z,17.07
2019-02-27T16:15:54.099Z,19.00
2019-02-27T16:18:25.943Z,29.10
2019-02-27T16:21:02.252Z,21.87
2019-02-27T16:23:37.426Z,40.83
2019-02-27T16:26:08.687Z,21.13
2019-02-27T16:28:40.536Z,20.00
2019-02-27T16:31:12.567Z,22.17
2019-02-27T16:33:45.830Z,18.00
2019-02-27T16:36:17.697Z,16.73
2019-02-27T16:38:51.321Z,24.07
2019-02-27T16:41:29.187Z,17.80
2019-02-27T16:44:03.332Z,16.80
2019-02-27T16:46:33.842Z,15.90
2019-02-27T16:49:09.628Z,18.17
2019-02-27T16:51:40.708Z,13.83
2019-02-27T16:54:12.848Z,19.13
2019-02-27T16:56:46.749Z,24.57
2019-02-27T16:59:15.496Z,14.63
2019-02-27T17:01:45.969Z,15.50
2019-02-27T17:04:17.714Z,18.53
2019-02-27T17:06:52.180Z,17.13
2019-02-27T17:09:24.507Z,16.53
2019-02-27T17:11:54.996Z,16.07
2019-02-27T17:14:26.636Z,14.53
2019-02-27T17:16:57.128Z,19.40
2019-02-27T17:19:28.743Z,18.53
2019-02-27T17:21:59.500Z,21.97
2019-02-27T17:24:30.652Z,19.67
2019-02-27T17:27:01.153Z,18.83
2019-02-27T17:29:31.616Z,17.80
2019-02-27T17:32:03.878Z,21.00
2019-02-27T17:34:36.008Z,20.60
2019-02-27T17:37:07.196Z,22.27
2019-02-27T17:39:37.769Z,22.50
2019-02-27T17:42:09.826Z,17.13
2019-02-27T17:44:43.740Z,20.37
2019-02-27T17:47:14.224Z,17.70
2019-02-27T17:49:45.483Z,19.13
2019-02-27T17:52:15.956Z,18.30
2019-02-27T17:54:48.090Z,18.60
2019-02-27T17:57:24.221Z,20.47
2019-02-27T17:59:50.758Z,17.50
2019-02-27T18:02:22.377Z,20.53
2019-02-27T18:04:53.829Z,18.23
2019-02-27T18:07:24.453Z,18.40
2019-02-27T18:09:58.383Z,21.40
2019-02-27T18:12:29.225Z,16.93
2019-02-27T18:14:59.738Z,20.20
2019-02-27T18:17:34.686Z,19.20
2019-02-27T18:20:06.916Z,19.30
2019-02-27T18:22:37.381Z,17.97
2019-02-27T18:25:12.191Z,18.07
2019-02-27T18:27:42.720Z,16.77
2019-02-27T18:30:19.874Z,19.00
2019-02-27T18:32:50.773Z,19.63
2019-02-27T18:35:21.484Z,16.27
2019-02-27T18:37:54.228Z,20.97
2019-02-27T18:40:24.437Z,16.80
2019-02-27T18:42:56.538Z,14.80
2019-02-27T18:45:30.188Z,21.30
2019-02-27T18:48:01.468Z,19.33
2019-02-27T18:50:36.194Z,20.17
2019-02-27T18:53:07.551Z,18.43
2019-02-27T18:55:38.130Z,16.23
2019-02-27T18:58:09.255Z,16.97
2019-02-27T19:00:39.713Z,17.03
2019-02-27T19:03:12.456Z,42.33
2019-02-27T19:05:42.979Z,36.90
2019-02-27T19:08:13.538Z,39.70
2019-02-27T19:10:44.670Z,29.33
2019-02-27T19:13:16.338Z,27.00
2019-02-27T19:15:46.869Z,35.33
2019-02-27T19:18:17.363Z,25.33
2019-02-27T19:20:48.299Z,21.10
2019-02-27T19:23:19.795Z,16.07
2019-02-27T19:25:50.291Z,17.50
2019-02-27T19:28:24.479Z,15.17
2019-02-27T19:30:53.266Z,14.87
2019-02-27T19:33:23.749Z,18.13
2019-02-27T19:35:56.400Z,19.57
2019-02-27T19:38:26.424Z,21.63
2019-02-27T19:40:58.468Z,24.47
2019-02-27T19:43:31.371Z,25.67
2019-02-27T19:46:01.839Z,28.27
2019-02-27T19:48:32.342Z,25.90
2019-02-27T19:51:05.112Z,22.40
2019-02-27T19:53:42.721Z,22.43
2019-02-27T19:56:13.000Z,15.70
2019-02-27T19:58:45.046Z,20.60
2019-02-27T20:01:35.621Z,23.50
2019-02-27T20:04:09.607Z,28.20
2019-02-27T20:06:42.358Z,23.30
2019-02-27T20:09:19.047Z,58.50
2019-02-27T20:11:48.364Z,39.87
2019-02-27T20:14:20.119Z,24.60
2019-02-27T20:16:54.957Z,30.20
2019-02-27T20:19:28.439Z,29.20
2019-02-27T20:21:55.208Z,30.17
2019-02-27T20:24:29.466Z,29.83
2019-02-27T20:26:59.941Z,30.23
2019-02-27T20:29:30.430Z,29.73
2019-02-27T20:32:05.607Z,25.90
2019-02-27T20:34:39.274Z,28.60
2019-02-27T20:37:09.888Z,28.40
2019-02-27T20:39:43.710Z,29.97
2019-02-27T20:42:14.471Z,22.60
2019-02-27T20:44:45.072Z,24.37
2019-02-27T20:47:15.615Z,20.83
2019-02-27T20:49:47.872Z,23.03
2019-02-27T20:52:18.326Z,20.87
2019-02-27T20:54:49.356Z,21.30
2019-02-27T20:57:20.688Z,26.07
2019-02-27T20:59:52.333Z,24.77
2019-02-27T21:02:22.828Z,25.40
2019-02-27T21:04:53.297Z,28.20
2019-02-27T21:07:26.216Z,21.27
2019-02-27T21:09:56.626Z,21.97
2019-02-27T21:12:27.101Z,24.50
2019-02-27T21:14:57.922Z,22.73
2019-02-27T21:17:29.033Z,24.83
2019-02-27T21:20:01.019Z,19.73
2019-02-27T21:22:32.398Z,23.70
2019-02-27T21:25:05.812Z,21.17
2019-02-27T21:27:36.268Z,21.63
2019-02-27T21:30:19.374Z,21.40
2019-02-27T21:32:49.973Z,20.07
2019-02-27T21:35:20.663Z,25.53
2019-02-27T21:37:54.390Z,21.97
2019-02-27T21:40:25.808Z,22.07
2019-02-27T21:42:56.270Z,19.40
2019-02-27T21:45:26.831Z,21.77
2019-02-27T21:47:57.366Z,24.63
2019-02-27T21:50:28.928Z,22.63
2019-02-27T21:52:59.390Z,24.53
2019-02-27T21:55:32.856Z,26.70
2019-02-27T21:58:04.293Z,23.00
2019-02-27T22:00:35.513Z,26.10
2019-02-27T22:03:06.071Z,30.83
2019-02-27T22:05:42.682Z,29.03
2019-02-27T22:08:08.743Z,26.90
2019-02-27T22:10:39.277Z,30.50
2019-02-27T22:13:10.818Z,24.37
2019-02-27T22:15:41.524Z,23.73
2019-02-27T22:18:12.177Z,24.33
2019-02-27T22:20:42.710Z,23.10
2019-02-27T22:23:13.584Z,24.63
2019-02-27T22:25:45.680Z,23.13
2019-02-27T22:28:17.304Z,26.70
2019-02-27T22:30:51.509Z,26.90
2019-02-27T22:33:22.984Z,29.30
2019-02-27T22:35:55.288Z,24.63
2019-02-27T22:38:26.772Z,23.40
2019-02-27T22:40:58.871Z,26.63
2019-02-27T22:43:30.092Z,27.00
2019-02-27T22:46:00.588Z,26.80
2019-02-27T22:48:32.166Z,24.50
2019-02-27T22:51:03.173Z,24.93
2019-02-27T22:53:33.631Z,24.77
2019-02-27T22:56:04.148Z,28.87
2019-02-27T22:58:34.606Z,26.07
2019-02-27T23:01:11.030Z,24.40
2019-02-27T23:03:50.839Z,25.63
2019-02-27T23:06:23.003Z,25.30
2019-02-27T23:08:54.450Z,20.63
2019-02-27T23:11:25.591Z,25.80
2019-02-27T23:13:56.710Z,22.87
2019-02-27T23:16:29.777Z,20.67
2019-02-27T23:18:59.636Z,23.83
2019-02-27T23:21:31.703Z,20.57
2019-02-27T23:24:02.167Z,22.90
2019-02-27T23:26:33.952Z,24.50
2019-02-27T23:29:06.471Z,25.60
2019-02-27T23:31:37.122Z,23.60
2019-02-27T23:34:08.643Z,25.27
2019-02-27T23:36:39.279Z,25.60
2019-02-27T23:39:10.309Z,28.27
2019-02-27T23:41:40.824Z,26.00
2019-02-27T23:44:12.188Z,23.90
2019-02-27T23:46:49.583Z,26.60
2019-02-27T23:49:29.211Z,23.13
2019-02-27T23:52:02.486Z,25.47
2019-02-27T23:54:35.898Z,27.00
2019-02-27T23:57:05.339Z,25.50
2019-02-27T23:59:37.000Z,28.30
